Time;durP1;ratioP1;P1;durP2;ratioP2;P2;SDS_P1;SDS_P2;PMS_P1;PMS_P2;Temp;Humidity;BMP_temperature;BMP_pressure;BME280_temperature;BME280_humidity;BME280_pressure;Samples;Min_cycle;Max_cycle;Signal;HPM_P1;HPM_P2
2022/07/10 00:00:45;;;;;;;8.43;2.15;;;12.90;99.90;;;;;;6159166;23;20013;-87
2022/07/10 00:03:14;;;;;;;12.65;3.30;;;12.90;99.90;;;;;;6158236;23;20024;-87
2022/07/10 00:05:46;;;;;;;8.98;2.10;;;13.60;99.90;;;;;;6158752;23;20024;-87
2022/07/10 00:08:17;;;;;;;11.35;2.25;;;14.00;99.90;;;;;;6185692;23;20049;-86
2022/07/10 00:10:52;;;;;;;9.82;2.83;;;14.00;99.90;;;;;;6157758;23;20013;-87
2022/07/10 00:13:33;;;;;;;11.50;2.30;;;12.70;99.90;;;;;;6158876;23;20450;-87
2022/07/10 00:16:08;;;;;;;7.53;1.90;;;13.10;99.90;;;;;;6184451;23;20520;-87
2022/07/10 00:18:37;;;;;;;10.23;2.10;;;13.70;99.90;;;;;;6158512;23;20045;-87
2022/07/10 00:21:11;;;;;;;10.95;2.60;;;13.70;99.90;;;;;;6185132;23;20438;-87
2022/07/10 00:23:40;;;;;;;8.82;2.25;;;12.90;99.90;;;;;;6157817;23;20441;-86
2022/07/10 00:26:15;;;;;;;8.43;2.10;;;13.40;99.90;;;;;;6185554;23;20075;-87
2022/07/10 00:28:44;;;;;;;9.45;2.20;;;12.60;99.90;;;;;;6185276;23;20101;-87
2022/07/10 00:31:15;;;;;;;9.13;2.35;;;12.20;99.90;;;;;;6184845;23;20076;-86
2022/07/10 00:33:48;;;;;;;7.45;2.05;;;12.70;99.90;;;;;;6184860;23;20322;-87
2022/07/10 00:36:14;;;;;;;9.38;2.20;;;12.90;99.90;;;;;;6184937;23;20060;-87
2022/07/10 00:38:40;;;;;;;8.52;2.00;;;12.20;99.90;;;;;;6184195;23;20025;-86
2022/07/10 00:41:06;;;;;;;11.90;2.78;;;12.20;99.90;;;;;;6185524;23;20021;-87
2022/07/10 00:43:55;;;;;;;10.90;2.47;;;12.10;99.90;;;;;;6158677;23;20032;-86
2022/07/10 00:46:21;;;;;;;8.15;2.00;;;13.00;99.90;;;;;;6185328;23;20017;-87
2022/07/10 00:48:50;;;;;;;9.70;2.42;;;12.10;99.90;;;;;;6158329;23;20009;-87
2022/07/10 00:51:17;;;;;;;13.60;2.63;;;12.10;99.90;;;;;;6157977;23;20045;-87
2022/07/10 00:53:46;;;;;;;10.32;2.00;;;12.00;99.90;;;;;;6158499;23;20016;-87
2022/07/10 00:56:14;;;;;;;11.02;2.22;;;12.00;99.90;;;;;;6185698;23;20071;-86
2022/07/10 00:58:41;;;;;;;12.80;2.65;;;12.00;99.90;;;;;;6183380;23;20020;-87
2022/07/10 01:01:07;;;;;;;8.27;2.35;;;12.00;99.90;;;;;;6185061;23;20012;-87
2022/07/10 01:03:39;;;;;;;8.45;2.22;;;12.00;99.90;;;;;;6137105;23;20022;-87
2022/07/10 01:06:14;;;;;;;7.60;2.10;;;13.00;99.90;;;;;;6154799;23;20025;-87
2022/07/10 01:08:43;;;;;;;11.45;2.17;;;11.70;99.90;;;;;;6155473;23;20017;-87
2022/07/10 01:11:18;;;;;;;9.85;2.40;;;11.90;99.90;;;;;;6155393;23;20084;-87
2022/07/10 01:14:00;;;;;;;11.00;2.20;;;11.90;99.90;;;;;;6127820;23;20053;-87
2022/07/10 01:16:34;;;;;;;8.52;2.10;;;12.70;99.90;;;;;;6155763;23;20017;-87
2022/07/10 01:19:09;;;;;;;;;;;12.20;99.90;;;;;;6155617;23;20043;-86
2022/07/10 01:21:44;;;;;;;11.27;2.60;;;11.90;99.90;;;;;;6128186;23;19924;-87
2022/07/10 01:24:18;;;;;;;10.60;2.55;;;12.00;99.90;;;;;;6128790;23;20014;-87
2022/07/10 01:26:47;;;;;;;8.60;2.03;;;13.00;99.90;;;;;;6128050;23;20031;-88
2022/07/10 01:29:16;;;;;;;9.50;2.88;;;13.20;99.90;;;;;;6154991;23;20471;-86
2022/07/10 01:31:43;;;;;;;11.63;2.55;;;12.60;99.90;;;;;;6128941;23;20017;-87
2022/07/10 01:34:09;;;;;;;9.75;2.15;;;12.00;99.90;;;;;;6153811;23;20022;-86
2022/07/10 01:36:36;;;;;;;10.38;2.40;;;12.00;99.90;;;;;;6128917;23;20056;-87
2022/07/10 01:39:03;;;;;;;9.18;2.10;;;11.90;99.90;;;;;;6128920;23;20029;-86
2022/07/10 01:41:28;;;;;;;11.43;2.47;;;12.00;99.90;;;;;;6154091;23;20056;-87
2022/07/10 01:43:54;;;;;;;10.35;2.30;;;12.00;99.90;;;;;;6128481;23;20025;-86
2022/07/10 01:46:20;;;;;;;12.05;2.50;;;12.10;99.90;;;;;;6128995;23;20041;-87
2022/07/10 01:48:46;;;;;;;10.40;2.28;;;12.20;99.90;;;;;;6127897;23;20017;-86
2022/07/10 01:51:12;;;;;;;9.57;1.98;;;12.30;99.90;;;;;;6156313;23;20453;-86
2022/07/10 01:53:38;;;;;;;10.27;2.63;;;12.30;99.90;;;;;;6157535;23;20025;-87
2022/07/10 01:56:07;;;;;;;8.80;2.05;;;12.30;99.90;;;;;;6129153;23;20509;-88
2022/07/10 01:58:35;;;;;;;11.48;2.13;;;12.40;99.90;;;;;;6156080;23;20029;-86
2022/07/10 02:01:05;;;;;;;9.15;2.25;;;12.20;99.90;;;;;;6156388;23;20446;-87
2022/07/10 02:06:40;;;;;;;9.85;2.10;;;12.30;99.90;;;;;;6124785;23;20026;-87
2022/07/10 02:09:06;;;;;;;12.52;3.13;;;12.20;99.90;;;;;;6126675;23;20021;-86
2022/07/10 02:11:32;;;;;;;10.23;2.25;;;12.20;99.90;;;;;;6125847;23;20018;-86
2022/07/10 02:13:57;;;;;;;8.13;2.20;;;12.20;99.90;;;;;;6127398;23;20018;-87
2022/07/10 02:16:23;;;;;;;13.00;2.25;;;12.20;99.90;;;;;;6126647;23;20097;-87
2022/07/10 02:18:48;;;;;;;12.70;2.20;;;12.10;99.90;;;;;;6126779;23;20018;-87
2022/07/10 02:21:14;;;;;;;12.07;2.30;;;12.10;99.90;;;;;;6125531;23;20024;-87
2022/07/10 02:23:40;;;;;;;10.07;2.17;;;12.00;99.90;;;;;;6124790;23;20021;-87
2022/07/10 02:26:09;;;;;;;10.20;2.30;;;12.20;99.90;;;;;;6147203;23;20017;-87
2022/07/10 02:28:43;;;;;;;9.38;2.25;;;12.90;99.90;;;;;;6130381;23;20320;-87
2022/07/10 02:31:18;;;;;;;8.57;2.10;;;12.40;99.90;;;;;;6156289;23;20084;-87
2022/07/10 02:33:47;;;;;;;12.80;2.50;;;12.00;99.90;;;;;;6156499;23;20077;-87
2022/07/10 02:36:15;;;;;;;12.13;2.33;;;12.00;99.90;;;;;;6157141;23;20013;-87
2022/07/10 02:38:41;;;;;;;7.18;2.25;;;13.00;99.90;;;;;;6128997;23;20025;-87
2022/07/10 02:41:07;;;;;;;11.23;2.42;;;12.40;99.90;;;;;;6140068;23;20021;-86
2022/07/10 02:43:33;;;;;;;9.13;2.05;;;13.10;99.90;;;;;;6186529;23;20021;-87
2022/07/10 02:45:58;;;;;;;9.93;2.45;;;13.00;99.90;;;;;;6159258;23;20067;-87
2022/07/10 02:48:24;;;;;;;12.75;2.30;;;11.80;99.90;;;;;;6160898;23;20009;-86
2022/07/10 02:50:52;;;;;;;9.40;2.10;;;12.80;99.90;;;;;;6185447;23;20016;-87
2022/07/10 02:53:18;;;;;;;7.80;1.90;;;11.80;99.90;;;;;;6160130;23;20083;-87
2022/07/10 02:55:44;;;;;;;9.48;2.25;;;11.80;99.90;;;;;;6159796;23;20017;-86
2022/07/10 02:58:09;;;;;;;11.68;2.22;;;11.90;99.90;;;;;;6185825;23;20036;-87
2022/07/10 03:00:36;;;;;;;10.77;2.10;;;11.90;99.90;;;;;;6160578;23;20052;-87
2022/07/10 03:03:01;;;;;;;11.95;2.20;;;11.90;99.90;;;;;;6159365;23;20021;-87
2022/07/10 03:05:27;;;;;;;11.60;2.58;;;11.90;99.90;;;;;;6159122;23;20028;-87
2022/07/10 03:07:53;;;;;;;8.40;2.00;;;11.90;99.90;;;;;;6185936;23;20071;-87
2022/07/10 03:10:19;;;;;;;10.35;2.38;;;11.90;99.90;;;;;;6186549;23;20088;-87
2022/07/10 03:12:44;;;;;;;9.82;2.17;;;11.90;99.90;;;;;;6158120;23;20021;-87
2022/07/10 03:15:10;;;;;;;12.68;2.35;;;11.80;99.90;;;;;;6159367;23;20013;-87
2022/07/10 03:17:36;;;;;;;9.65;2.20;;;11.80;99.90;;;;;;6186328;23;20096;-87
2022/07/10 03:20:02;;;;;;;9.63;2.25;;;11.80;99.90;;;;;;6185202;23;20044;-87
2022/07/10 03:22:28;;;;;;;12.32;3.00;;;11.70;99.90;;;;;;6186665;23;20017;-86
2022/07/10 03:24:54;;;;;;;12.23;2.47;;;11.70;99.90;;;;;;6185606;23;20013;-86
2022/07/10 03:27:20;;;;;;;10.68;2.10;;;11.70;99.90;;;;;;6185325;23;20021;-87
2022/07/10 03:29:46;;;;;;;10.05;2.25;;;11.60;99.90;;;;;;6159390;23;20020;-86
2022/07/10 03:32:11;;;;;;;7.90;1.70;;;11.60;99.90;;;;;;6186535;23;20088;-86
2022/07/10 03:34:37;;;;;;;9.38;1.80;;;12.30;99.90;;;;;;6185480;23;20102;-86
2022/07/10 03:37:03;;;;;;;9.85;2.00;;;11.60;99.90;;;;;;6185725;23;20017;-87
2022/07/10 03:39:29;;;;;;;13.07;1.85;;;11.60;99.90;;;;;;6159731;23;20055;-86
2022/07/10 03:41:54;;;;;;;10.70;2.00;;;11.50;99.90;;;;;;6184875;23;20021;-87
2022/07/10 03:44:20;;;;;;;11.80;2.13;;;11.50;99.90;;;;;;6160093;23;20017;-86
2022/07/10 03:46:46;;;;;;;9.07;2.00;;;11.50;99.90;;;;;;6186514;23;20120;-86
2022/07/10 03:49:11;;;;;;;12.85;2.15;;;11.50;99.90;;;;;;6186044;23;20009;-87
2022/07/10 03:51:37;;;;;;;10.43;2.17;;;11.80;99.90;;;;;;6186251;23;20025;-87
2022/07/10 03:54:02;;;;;;;10.00;1.98;;;11.50;99.90;;;;;;6158886;23;20485;-86
2022/07/10 03:59:12;;;;;;;14.20;2.10;;;11.50;99.90;;;;;;6187516;23;20048;-87
2022/07/10 04:01:38;;;;;;;8.60;2.10;;;11.60;99.90;;;;;;6159264;23;20017;-87
2022/07/10 04:04:03;;;;;;;10.68;2.65;;;11.60;99.90;;;;;;6159702;23;20020;-87
2022/07/10 04:06:29;;;;;;;10.45;2.10;;;11.60;99.90;;;;;;6185071;23;20430;-87
2022/07/10 04:08:55;;;;;;;9.73;1.90;;;11.60;99.90;;;;;;6184630;23;20140;-87
2022/07/10 04:11:20;;;;;;;9.80;2.05;;;11.70;99.90;;;;;;6186094;23;20024;-87
2022/07/10 04:13:46;;;;;;;11.18;1.90;;;12.90;99.90;;;;;;6159159;23;20020;-87
2022/07/10 04:16:12;;;;;;;8.07;1.98;;;11.80;99.90;;;;;;6158880;23;20021;-87
2022/07/10 04:18:41;;;;;;;10.50;1.98;;;12.00;99.90;;;;;;6159978;23;20052;-87
2022/07/10 04:21:07;;;;;;;9.90;1.88;;;12.10;99.90;;;;;;6186590;23;20067;-87
2022/07/10 04:23:33;;;;;;;7.53;1.60;;;12.20;99.90;;;;;;6185918;23;20016;-87
2022/07/10 04:26:00;;;;;;;7.43;1.70;;;12.60;99.90;;;;;;6159748;23;20144;-87
2022/07/10 04:28:28;;;;;;;7.38;1.80;;;12.50;99.90;;;;;;6186717;23;20013;-87
2022/07/10 04:30:54;;;;;;;9.98;1.98;;;12.60;99.90;;;;;;6185078;23;20013;-87
2022/07/10 04:33:19;;;;;;;8.50;1.88;;;12.60;99.90;;;;;;6186144;23;20024;-87
2022/07/10 04:35:45;;;;;;;8.77;1.98;;;12.70;99.90;;;;;;6185532;23;20504;-87
2022/07/10 04:38:12;;;;;;;8.15;2.08;;;12.80;99.90;;;;;;6158217;23;20099;-88
2022/07/10 04:40:38;;;;;;;10.85;1.92;;;12.70;99.90;;;;;;6186904;23;20009;-86
2022/07/10 04:43:03;;;;;;;8.60;1.98;;;12.80;99.90;;;;;;6185303;23;20055;-87
2022/07/10 04:45:29;;;;;;;10.35;1.98;;;12.80;99.90;;;;;;6158489;23;20393;-87
2022/07/10 04:47:54;;;;;;;6.53;1.88;;;12.80;99.90;;;;;;6158676;23;20013;-87
2022/07/10 04:50:20;;;;;;;11.32;1.85;;;12.80;99.90;;;;;;6159039;23;20328;-87
2022/07/10 04:52:45;;;;;;;6.07;1.83;;;12.80;99.90;;;;;;6158671;23;20040;-87
2022/07/10 04:55:14;;;;;;;10.07;2.00;;;12.90;99.90;;;;;;6184764;23;20438;-87
2022/07/10 04:58:05;;;;;;;6.15;1.77;;;13.00;99.90;;;;;;6144785;23;20105;-85
2022/07/10 05:00:30;;;;;;;7.18;2.63;;;12.90;99.90;;;;;;6100042;23;20029;-85
2022/07/10 05:02:56;;;;;;;7.57;1.88;;;13.00;99.90;;;;;;6099082;23;20022;-85
2022/07/10 05:05:22;;;;;;;7.22;1.80;;;13.00;99.90;;;;;;6100124;23;20085;-87
2022/07/10 05:07:50;;;;;;;9.15;1.83;;;14.00;99.90;;;;;;6100179;23;20133;-87
2022/07/10 05:10:15;;;;;;;8.18;1.80;;;13.20;99.90;;;;;;6126514;23;20040;-87
2022/07/10 05:12:41;;;;;;;11.50;2.00;;;13.20;99.90;;;;;;6098675;23;20041;-87
2022/07/10 05:15:07;;;;;;;7.68;1.67;;;13.20;99.90;;;;;;6126044;23;20021;-87
2022/07/10 05:17:33;;;;;;;10.57;1.80;;;13.20;99.90;;;;;;6100055;23;20045;-87
2022/07/10 05:19:58;;;;;;;10.35;2.28;;;13.20;99.90;;;;;;6099524;23;20022;-87
2022/07/10 05:22:24;;;;;;;10.23;1.85;;;14.00;99.90;;;;;;6100231;23;20390;-88
2022/07/10 05:25:16;;;;;;;12.25;1.90;;;13.30;99.90;;;;;;6141420;23;20014;-88
2022/07/10 05:27:51;;;;;;;7.82;1.73;;;13.30;99.90;;;;;;6154918;23;20088;-90
2022/07/10 05:30:17;;;;;;;11.75;2.00;;;13.40;99.90;;;;;;6158730;23;20021;-90
2022/07/10 05:32:44;;;;;;;8.38;1.75;;;13.40;99.90;;;;;;6155112;23;20021;-86
2022/07/10 05:35:11;;;;;;;10.80;1.90;;;13.50;99.90;;;;;;6161552;23;20464;-89
2022/07/10 05:37:36;;;;;;;9.95;1.90;;;14.50;99.90;;;;;;6163308;23;20021;-90
2022/07/10 05:40:02;;;;;;;9.32;1.88;;;13.60;99.90;;;;;;6187973;23;20049;-89
2022/07/10 05:42:28;;;;;;;10.13;1.85;;;13.70;99.90;;;;;;6187857;23;20050;-88
2022/07/10 05:44:54;;;;;;;10.18;2.00;;;13.70;99.90;;;;;;6189316;23;20020;-88
2022/07/10 05:47:38;;;;;;;7.10;1.60;;;14.30;99.90;;;;;;6188594;23;20334;-88
2022/07/10 05:50:10;;;;;;;13.07;1.95;;;13.80;99.90;;;;;;6161795;23;20024;-88
2022/07/10 05:52:39;;;;;;;9.63;1.90;;;13.90;99.90;;;;;;6162110;23;20079;-89
2022/07/10 05:55:21;;;;;;;7.85;1.85;;;13.90;99.90;;;;;;6160755;23;20048;-91
2022/07/10 05:58:02;;;;;;;7.70;1.70;;;13.90;99.90;;;;;;6160044;23;20017;-87
2022/07/10 06:00:33;;;;;;;7.57;2.00;;;15.10;99.90;;;;;;6184880;23;20009;-91
2022/07/10 06:02:59;;;;;;;10.68;1.83;;;14.10;99.90;;;;;;6161618;23;20048;-91
2022/07/10 06:05:40;;;;;;;7.30;1.80;;;14.30;99.90;;;;;;6190151;23;20024;-91
2022/07/10 06:08:12;;;;;;;7.90;2.03;;;15.40;99.90;;;;;;6163734;23;20013;-91
2022/07/10 06:10:40;;;;;;;9.60;2.00;;;15.60;99.90;;;;;;6164578;23;20020;-92
2022/07/10 06:13:08;;;;;;;10.48;2.13;;;14.60;99.90;;;;;;6163550;23;20067;-91
2022/07/10 06:15:43;;;;;;;10.95;2.20;;;15.70;99.90;;;;;;6163311;23;20337;-95
2022/07/10 06:18:26;;;;;;;7.32;1.83;;;14.60;99.90;;;;;;6190155;23;20086;-93
2022/07/10 06:21:12;;;;;;;8.88;1.92;;;15.60;99.90;;;;;;6163175;23;20056;-91
2022/07/10 06:23:38;;;;;;;10.38;1.98;;;15.70;99.90;;;;;;6135897;23;20096;-90
2022/07/10 06:26:36;;;;;;;10.60;1.88;;;15.20;99.90;;;;;;6163239;23;20021;-93
2022/07/10 06:29:51;;;;;;;9.15;1.98;;;14.60;99.90;;;;;;6191681;23;20024;-94
2022/07/10 06:32:32;;;;;;;7.68;1.80;;;14.90;99.90;;;;;;6157798;23;20384;-91
2022/07/10 06:35:02;;;;;;;9.48;1.83;;;15.20;99.90;;;;;;6162009;23;20032;-90
2022/07/10 06:37:31;;;;;;;8.82;1.95;;;14.70;99.90;;;;;;6156472;23;20338;-92
2022/07/10 06:39:57;;;;;;;11.30;2.45;;;16.00;99.90;;;;;;6161824;23;20083;-91
2022/07/10 06:42:22;;;;;;;11.02;2.00;;;15.10;99.90;;;;;;6190099;23;20335;-91
2022/07/10 06:44:48;;;;;;;8.90;1.98;;;16.30;99.90;;;;;;6193625;23;20017;-91
2022/07/10 06:50:34;;;;;;;7.15;2.53;;;15.30;99.90;;;;;;6189372;23;20021;-90
2022/07/10 06:53:06;;;;;;;9.65;2.05;;;16.20;99.90;;;;;;6189556;23;20024;-90
2022/07/10 06:55:39;;;;;;;11.27;2.10;;;16.10;99.90;;;;;;6187630;23;20017;-89
2022/07/10 06:58:08;;;;;;;14.98;2.33;;;16.30;99.90;;;;;;6159600;23;20048;-90
2022/07/10 07:00:46;;;;;;;8.90;2.00;;;16.20;99.90;;;;;;6159809;23;20469;-90
2022/07/10 07:03:17;;;;;;;8.60;2.05;;;15.90;99.90;;;;;;6158995;23;20071;-90
2022/07/10 07:09:39;;;;;;;9.68;2.13;;;15.20;99.90;;;;;;6159658;23;20021;-89
2022/07/10 07:12:10;;;;;;;8.73;2.05;;;16.40;99.90;;;;;;6184830;23;20072;-89
2022/07/10 07:14:42;;;;;;;10.75;2.13;;;15.50;99.90;;;;;;6159474;23;20021;-90
2022/07/10 07:17:14;;;;;;;7.72;1.92;;;15.50;99.90;;;;;;6159621;23;20053;-89
2022/07/10 07:25:46;;;;;;;12.50;2.35;;;14.60;99.90;;;;;;6159352;23;20072;-89
2022/07/10 07:28:17;;;;;;;10.55;2.55;;;15.80;99.90;;;;;;6160112;23;20028;-90
2022/07/10 07:30:43;;;;;;;10.82;2.30;;;14.60;99.90;;;;;;6160822;23;20453;-89
2022/07/10 07:33:11;;;;;;;10.45;2.17;;;14.70;99.90;;;;;;6158751;23;20024;-91
2022/07/10 07:35:41;;;;;;;11.10;2.20;;;15.10;99.90;;;;;;6161473;23;20105;-90
2022/07/10 07:38:10;;;;;;;10.57;2.65;;;15.20;99.90;;;;;;6162894;23;20117;-91
2022/07/10 07:40:42;;;;;;;9.70;2.40;;;16.10;99.90;;;;;;6185722;23;20395;-91
2022/07/10 07:43:07;;;;;;;8.93;2.42;;;15.10;99.90;;;;;;6159858;23;20013;-92
2022/07/10 07:45:33;;;;;;;8.10;2.10;;;14.70;99.90;;;;;;6187574;23;20028;-91
2022/07/10 07:48:01;;;;;;;6.22;1.75;;;15.80;99.90;;;;;;6158666;23;20259;-92
2022/07/10 07:50:34;;;;;;;9.18;2.67;;;15.50;99.90;;;;;;6159425;23;20020;-90
2022/07/10 07:53:02;;;;;;;9.23;2.28;;;16.30;99.90;;;;;;6185964;23;20021;-89
2022/07/10 07:55:31;;;;;;;10.00;2.05;;;16.10;99.90;;;;;;6185051;23;20005;-89
2022/07/10 07:58:04;;;;;;;10.98;2.00;;;15.60;99.90;;;;;;6158985;23;20070;-88
2022/07/10 08:00:30;;;;;;;11.02;2.15;;;16.80;99.90;;;;;;6158407;23;20017;-89
2022/07/10 08:03:02;;;;;;;7.03;2.15;;;15.90;99.90;;;;;;6180355;23;20020;-90
2022/07/10 08:05:31;;;;;;;7.93;2.05;;;15.70;99.90;;;;;;6160749;23;20021;-91
2022/07/10 08:08:08;;;;;;;8.38;2.05;;;17.30;99.90;;;;;;6185666;23;20071;-91
2022/07/10 08:10:34;;;;;;;8.75;2.28;;;15.80;99.90;;;;;;6159399;23;20017;-89
2022/07/10 08:13:05;;;;;;;8.50;2.00;;;16.50;99.90;;;;;;6185184;23;20017;-89
2022/07/10 08:17:58;;;;;;;7.03;1.90;;;16.50;99.90;;;;;;6184643;23;20025;-90
2022/07/10 08:20:42;;;;;;;8.43;2.10;;;17.00;99.90;;;;;;6185260;23;20469;-89
2022/07/10 08:23:11;;;;;;;10.60;2.30;;;16.80;99.90;;;;;;6157809;23;20021;-89
2022/07/10 08:25:55;;;;;;;7.22;1.83;;;17.60;99.90;;;;;;6159221;23;20021;-90
2022/07/10 08:28:20;;;;;;;8.93;1.80;;;17.90;99.90;;;;;;6189410;23;20025;-91
2022/07/10 08:30:46;;;;;;;9.02;2.05;;;16.70;99.90;;;;;;6157901;23;20048;-91
2022/07/10 08:33:15;;;;;;;6.88;1.75;;;16.50;99.90;;;;;;6185634;23;20024;-90
2022/07/10 08:35:46;;;;;;;5.53;1.55;;;16.50;99.90;;;;;;6168731;23;20071;-89
2022/07/10 08:41:46;;;;;;;6.28;1.65;;;16.00;99.90;;;;;;6184672;23;20032;-89
2022/07/10 08:44:25;;;;;;;8.02;1.58;;;17.00;99.90;;;;;;6161822;23;20084;-92
2022/07/10 08:46:50;;;;;;;5.85;1.60;;;16.20;99.90;;;;;;6152580;23;20072;-91
2022/07/10 08:49:28;;;;;;;5.47;1.52;;;16.40;99.90;;;;;;6155350;23;20025;-90
2022/07/10 08:51:57;;;;;;;3.30;1.20;;;15.60;99.90;;;;;;6153767;23;20064;-91
2022/07/10 08:54:24;;;;;;;5.78;1.52;;;15.70;99.90;;;;;;6153864;23;20068;-90
2022/07/10 08:56:51;;;;;;;5.07;1.30;;;15.70;99.90;;;;;;6152529;23;20132;-91
2022/07/10 08:59:17;;;;;;;5.38;1.50;;;15.80;99.90;;;;;;6153782;23;20017;-91
2022/07/10 09:01:43;;;;;;;5.28;1.40;;;16.60;99.90;;;;;;6158098;23;20337;-90
2022/07/10 09:04:18;;;;;;;5.03;1.60;;;16.00;99.90;;;;;;6158149;23;20060;-90
2022/07/10 09:06:44;;;;;;;7.63;1.50;;;16.10;99.90;;;;;;6132356;23;20010;-90
2022/07/10 09:09:10;;;;;;;4.45;1.30;;;16.30;99.90;;;;;;6157231;23;20359;-91
2022/07/10 09:11:38;;;;;;;6.95;1.45;;;16.80;99.90;;;;;;6156597;23;20017;-90
2022/07/10 09:14:07;;;;;;;7.38;1.42;;;16.50;99.90;;;;;;6159114;23;20013;-91
2022/07/10 09:16:38;;;;;;;4.55;1.40;;;16.60;99.90;;;;;;6157324;23;20013;-89
2022/07/10 09:19:27;;;;;;;5.40;1.50;;;17.10;99.90;;;;;;6131922;23;20156;-91
2022/07/10 09:22:03;;;;;;;6.10;1.40;;;16.70;99.90;;;;;;6158513;23;20021;-91
2022/07/10 09:24:36;;;;;;;3.03;1.35;;;16.70;99.90;;;;;;6158453;23;20017;-91
2022/07/10 09:27:05;;;;;;;5.05;1.60;;;17.30;99.90;;;;;;6156913;23;20141;-92
2022/07/10 09:30:45;;;;;;;5.78;1.48;;;16.80;99.90;;;;;;6081957;23;20018;-90
2022/07/10 09:33:27;;;;;;;4.20;1.30;;;16.70;99.90;;;;;;6038029;23;20023;-88
2022/07/10 09:36:18;;;;;;;3.85;1.25;;;17.60;99.90;;;;;;6039195;23;20019;-88
2022/07/10 09:38:51;;;;;;;4.72;1.33;;;16.50;99.90;;;;;;6015109;23;20102;-88
2022/07/10 09:41:29;;;;;;;4.70;1.42;;;16.30;99.90;;;;;;6019689;23;20023;-89
2022/07/10 09:44:01;;;;;;;9.48;1.65;;;16.30;99.90;;;;;;6015207;23;20098;-89
2022/07/10 09:50:24;;;;;;;7.55;1.77;;;16.10;99.90;;;;;;6101564;23;20441;-88
2022/07/10 09:52:58;;;;;;;6.22;1.70;;;15.90;99.90;;;;;;6125869;23;20021;-88
2022/07/10 09:55:26;;;;;;;6.20;1.70;;;16.20;99.90;;;;;;6127319;23;20022;-88
2022/07/10 09:58:00;;;;;;;5.88;1.60;;;15.80;99.90;;;;;;6128221;23;20021;-90
2022/07/10 10:00:31;;;;;;;5.10;1.70;;;15.80;99.90;;;;;;6128232;23;20071;-90
2022/07/10 10:03:11;;;;;;;3.88;1.40;;;15.70;99.90;;;;;;6128950;23;20041;-88
2022/07/10 10:05:38;;;;;;;5.88;1.63;;;15.70;99.90;;;;;;6126785;23;20049;-91
2022/07/10 10:08:12;;;;;;;5.20;1.50;;;15.70;99.90;;;;;;6128188;23;20018;-91
2022/07/10 10:10:43;;;;;;;5.68;1.70;;;15.70;99.90;;;;;;6127861;23;20046;-90
2022/07/10 10:13:11;;;;;;;6.97;1.73;;;16.00;99.90;;;;;;6127237;23;20022;-91
2022/07/10 10:15:38;;;;;;;6.22;1.60;;;16.10;99.90;;;;;;6124420;23;20014;-91
2022/07/10 10:18:04;;;;;;;4.78;1.50;;;16.20;99.90;;;;;;6131621;23;20092;-89
2022/07/10 10:20:37;;;;;;;5.47;1.50;;;16.30;99.90;;;;;;6140491;23;20033;-91
2022/07/10 10:23:05;;;;;;;3.70;1.50;;;16.30;99.90;;;;;;6128881;23;20014;-92
2022/07/10 10:25:32;;;;;;;5.88;1.75;;;16.40;99.90;;;;;;6126231;23;20026;-92
2022/07/10 10:28:49;;;;;;;5.13;1.45;;;16.40;99.90;;;;;;6147593;23;20044;-90
2022/07/10 10:31:16;;;;;;;5.43;1.50;;;16.50;99.90;;;;;;6164523;23;20052;-91
2022/07/10 10:33:46;;;;;;;6.00;1.60;;;16.70;99.90;;;;;;6162953;23;20352;-95
2022/07/10 10:36:14;;;;;;;3.67;1.50;;;17.60;99.90;;;;;;6159691;23;20013;-90
2022/07/10 10:39:13;;;;;;;7.35;1.75;;;17.00;99.90;;;;;;6186810;23;20020;-92
2022/07/10 10:42:08;;;;;;;4.38;1.52;;;16.50;99.90;;;;;;6162106;23;20021;-95
2022/07/10 10:44:39;;;;;;;4.22;1.40;;;16.20;99.90;;;;;;6158845;23;20024;-96
2022/07/10 10:47:14;;;;;;;2.55;1.23;;;17.40;99.90;;;;;;6156263;23;20088;-93
2022/07/10 10:49:59;;;;;;;4.10;1.33;;;17.50;99.90;;;;;;6156850;23;20013;-94
2022/07/10 10:52:37;;;;;;;5.28;1.50;;;16.60;99.90;;;;;;6155703;23;20013;-94
2022/07/10 10:55:19;;;;;;;3.28;1.30;;;17.60;99.90;;;;;;6155468;23;20045;-95
2022/07/10 10:57:47;;;;;;;2.95;1.35;;;17.40;99.90;;;;;;6162343;23;20450;-94
2022/07/10 11:00:14;;;;;;;3.88;1.40;;;16.30;99.90;;;;;;6162302;23;20055;-93
2022/07/10 11:02:43;;;;;;;1.92;1.20;;;16.30;99.90;;;;;;6161519;23;20032;-95
2022/07/10 11:05:18;;;;;;;5.35;1.52;;;17.10;99.90;;;;;;6162419;23;20021;-96
2022/07/10 11:08:03;;;;;;;4.93;1.58;;;16.80;99.90;;;;;;6160600;23;20017;-95
2022/07/10 11:10:38;;;;;;;5.10;1.50;;;16.50;99.90;;;;;;6160425;23;20021;-94
2022/07/10 11:13:04;;;;;;;4.55;1.50;;;16.60;99.90;;;;;;6161532;23;20013;-95
2022/07/10 11:15:32;;;;;;;5.05;1.60;;;16.80;99.90;;;;;;6163236;23;20056;-95
2022/07/10 11:18:19;;;;;;;5.25;1.60;;;16.90;99.90;;;;;;6187999;23;20311;-96
2022/07/10 11:20:50;;;;;;;5.45;1.60;;;17.10;99.90;;;;;;6139659;23;20013;-95
2022/07/10 11:23:34;;;;;;;5.20;1.63;;;17.10;99.90;;;;;;6166412;23;20017;-96
2022/07/10 11:29:06;;;;;;;6.68;1.75;;;17.50;99.90;;;;;;6187219;23;20032;-92
2022/07/10 11:31:38;;;;;;;4.47;1.60;;;17.60;99.90;;;;;;6188673;23;20009;-95
2022/07/10 11:34:04;;;;;;;6.28;1.70;;;18.30;99.90;;;;;;6164583;23;20025;-94
2022/07/10 11:36:36;;;;;;;3.35;1.45;;;17.70;99.90;;;;;;6164787;23;20094;-94
2022/07/10 11:39:12;;;;;;;5.13;1.77;;;17.50;99.90;;;;;;6191299;23;20052;-92
2022/07/10 11:42:03;;;;;;;6.38;1.80;;;17.20;99.90;;;;;;6165579;23;20021;-93
2022/07/10 11:44:28;;;;;;;7.35;2.03;;;17.00;99.90;;;;;;6165438;23;20040;-93
2022/07/10 11:47:02;;;;;;;5.82;1.92;;;16.90;99.90;;;;;;6167247;23;20017;-96
2022/07/10 11:49:31;;;;;;;7.25;2.25;;;16.80;99.90;;;;;;6166156;23;20037;-94
2022/07/10 11:52:05;;;;;;;7.03;2.05;;;16.60;99.90;;;;;;6165944;23;20445;-95
2022/07/10 11:55:37;;;;;;;8.90;2.38;;;16.50;99.90;;;;;;6169665;23;20025;-94
2022/07/10 11:58:28;;;;;;;7.30;2.00;;;16.40;99.90;;;;;;6182423;23;20103;-96
2022/07/10 12:01:15;;;;;;;7.88;2.28;;;16.40;99.90;;;;;;6165042;23;20021;-96
2022/07/10 12:03:43;;;;;;;8.77;2.40;;;16.30;99.90;;;;;;6190804;23;20013;-95
2022/07/10 12:06:12;;;;;;;7.00;1.90;;;17.70;99.90;;;;;;6192475;23;20021;-96
2022/07/10 12:08:47;;;;;;;7.00;2.47;;;16.80;99.90;;;;;;6165465;23;20382;-92
2022/07/10 12:11:20;;;;;;;7.00;2.30;;;17.10;99.90;;;;;;6196002;23;20024;-94
2022/07/10 12:13:48;;;;;;;8.02;2.30;;;18.00;99.90;;;;;;6196095;23;20005;-95
2022/07/10 12:16:17;;;;;;;10.07;2.40;;;18.20;99.90;;;;;;6168754;23;20017;-95
2022/07/10 12:18:53;;;;;;;8.27;2.15;;;17.60;99.90;;;;;;6190489;23;20460;-96
2022/07/10 12:24:02;;;;;;;9.20;2.28;;;18.00;99.90;;;;;;6196237;23;20025;-92
2022/07/10 12:26:35;;;;;;;8.02;2.30;;;18.20;99.90;;;;;;6162818;23;20016;-92
2022/07/10 12:29:38;;;;;;;6.88;2.15;;;18.40;99.90;;;;;;6185355;23;20032;-92
2022/07/10 12:32:05;;;;;;;7.68;2.42;;;19.60;99.90;;;;;;6185691;23;20025;-92
2022/07/10 12:34:35;;;;;;;8.48;2.22;;;18.60;99.90;;;;;;6159192;23;20510;-92
2022/07/10 12:37:10;;;;;;;8.38;2.10;;;18.60;99.90;;;;;;6185800;23;20036;-92
2022/07/10 12:40:11;;;;;;;8.63;2.35;;;18.20;99.90;;;;;;6183880;23;20031;-91
2022/07/10 12:42:37;;;;;;;8.20;2.35;;;18.10;99.90;;;;;;6156303;23;20044;-96
2022/07/10 12:45:13;;;;;;;7.13;2.53;;;18.80;99.90;;;;;;6156223;23;20061;-94
2022/07/10 12:48:04;;;;;;;7.75;2.17;;;17.50;99.90;;;;;;6157723;23;20018;-95
2022/07/10 12:50:39;;;;;;;7.45;2.30;;;18.30;99.90;;;;;;6156056;23;20022;-92
2022/07/10 12:53:23;;;;;;;7.90;2.35;;;18.10;99.90;;;;;;6154737;23;20041;-93
2022/07/10 12:55:50;;;;;;;10.43;2.50;;;18.20;99.90;;;;;;6153140;23;20025;-95
2022/07/10 12:58:18;;;;;;;9.68;2.40;;;17.90;99.90;;;;;;6158112;23;20076;-92
2022/07/10 13:00:48;;;;;;;9.63;2.20;;;17.10;99.90;;;;;;6160143;23;20018;-92
2022/07/10 13:03:22;;;;;;;7.93;2.13;;;17.40;99.90;;;;;;6170633;23;20024;-96
2022/07/10 13:09:22;;;;;;;7.22;2.20;;;17.00;99.90;;;;;;6193707;23;20112;-96
2022/07/10 13:11:50;;;;;;;7.88;2.38;;;17.40;99.90;;;;;;6189739;23;20021;-96
2022/07/10 13:17:00;;;;;;;8.60;2.58;;;16.20;99.90;;;;;;6190268;23;20021;-95
2022/07/10 13:19:32;;;;;;;9.05;2.75;;;16.00;99.90;;;;;;6188162;23;20068;-92
2022/07/10 13:21:58;;;;;;;8.82;2.70;;;17.20;99.90;;;;;;6162376;23;20044;-89
2022/07/10 13:24:39;;;;;;;9.93;2.72;;;17.40;99.90;;;;;;6165127;23;20024;-92
2022/07/10 13:27:07;;;;;;;10.23;2.88;;;16.60;99.90;;;;;;6190327;23;20500;-93
2022/07/10 13:29:42;;;;;;;10.43;2.53;;;16.60;99.90;;;;;;6164493;23;20017;-91
2022/07/10 13:32:13;;;;;;;11.15;2.95;;;17.10;99.90;;;;;;6165414;23;20018;-96
2022/07/10 13:34:42;;;;;;;9.30;2.70;;;16.70;99.90;;;;;;6190199;23;20024;-94
2022/07/10 13:37:14;;;;;;;7.18;2.20;;;16.80;99.90;;;;;;6166750;23;20017;-96
2022/07/10 13:39:46;;;;;;;7.63;3.10;;;16.90;99.90;;;;;;6164056;23;20020;-96
2022/07/10 13:42:12;;;;;;;9.48;3.15;;;17.80;99.90;;;;;;6189188;23;20022;-96
2022/07/10 13:44:41;;;;;;;10.13;2.90;;;17.30;99.90;;;;;;6170896;23;20020;-96